createdAt,value
2022-12-20T00:01:55.591Z,29.17
2022-12-20T00:04:23.566Z,28.52
2022-12-20T00:06:51.400Z,29.67
2022-12-20T00:09:19.278Z,36.13
2022-12-20T00:11:47.141Z,25.23
2022-12-20T00:14:14.954Z,27.02
2022-12-20T00:16:42.868Z,26.38
2022-12-20T00:19:12.689Z,28.77
2022-12-20T00:21:40.525Z,27.88
2022-12-20T00:24:08.675Z,27.88
2022-12-20T00:26:37.996Z,26.35
2022-12-20T00:29:07.049Z,29.35
2022-12-20T00:31:35.452Z,23.58
2022-12-20T00:34:03.415Z,26.90
2022-12-20T00:36:33.604Z,26.15
2022-12-20T00:39:02.308Z,25.48
2022-12-20T00:41:31.885Z,28.25
2022-12-20T00:43:59.771Z,27.63
2022-12-20T00:46:28.420Z,28.20
2022-12-20T00:48:56.970Z,28.38
2022-12-20T00:51:27.355Z,26.38
2022-12-20T00:53:57.437Z,25.63
2022-12-20T00:56:25.950Z,28.55
2022-12-20T00:58:54.411Z,28.85
2022-12-20T01:01:24.624Z,28.52
2022-12-20T01:03:54.134Z,30.02
2022-12-20T01:06:22.921Z,29.67
2022-12-20T01:08:50.753Z,26.70
2022-12-20T01:11:23.282Z,25.95
2022-12-20T01:13:53.460Z,29.33
2022-12-20T01:16:23.777Z,25.83
2022-12-20T01:18:52.435Z,24.73
2022-12-20T01:21:22.221Z,32.33
2022-12-20T01:23:50.222Z,28.65
2022-12-20T01:26:22.248Z,26.70
2022-12-20T01:28:52.924Z,25.75
2022-12-20T01:31:21.048Z,30.73
2022-12-20T01:33:50.753Z,27.65
2022-12-20T01:36:20.448Z,27.27
2022-12-20T01:38:48.476Z,29.45
2022-12-20T01:41:17.586Z,29.88
2022-12-20T01:43:52.538Z,26.83
2022-12-20T01:46:22.233Z,28.90
2022-12-20T01:48:53.418Z,28.40
2022-12-20T01:51:22.108Z,28.23
2022-12-20T01:53:53.812Z,24.92
2022-12-20T01:56:21.756Z,26.75
2022-12-20T01:58:54.164Z,29.08
2022-12-20T02:01:23.664Z,27.45
2022-12-20T02:03:53.310Z,31.17
2022-12-20T02:06:24.171Z,27.95
2022-12-20T02:08:56.639Z,30.83
2022-12-20T02:11:46.342Z,33.90
2022-12-20T02:14:25.010Z,36.88
2022-12-20T02:17:01.170Z,32.85
2022-12-20T02:19:55.555Z,32.40
2022-12-20T02:22:29.900Z,31.77
2022-12-20T02:25:32.488Z,39.10
2022-12-20T02:28:05.137Z,32.85
2022-12-20T02:30:38.041Z,32.72
2022-12-20T02:33:08.901Z,34.35
2022-12-20T02:35:39.669Z,32.83
2022-12-20T02:38:27.204Z,30.50
2022-12-20T02:40:59.028Z,31.25
2022-12-20T02:43:46.226Z,32.00
2022-12-20T02:46:16.657Z,31.63
2022-12-20T02:48:45.829Z,31.63
2022-12-20T02:51:15.451Z,31.15
2022-12-20T02:53:44.853Z,29.73
2022-12-20T02:56:19.441Z,32.20
2022-12-20T02:58:53.553Z,36.45
2022-12-20T03:01:27.915Z,32.95
2022-12-20T03:03:57.912Z,32.20
2022-12-20T03:06:26.334Z,33.05
2022-12-20T03:08:54.178Z,30.25
2022-12-20T03:11:22.001Z,33.72
2022-12-20T03:13:49.820Z,35.83
2022-12-20T03:16:17.857Z,34.22
2022-12-20T03:18:48.040Z,37.33
2022-12-20T03:21:15.936Z,37.40
2022-12-20T03:23:43.779Z,32.92
2022-12-20T03:26:11.582Z,41.72
2022-12-20T03:28:39.390Z,39.30
2022-12-20T03:31:07.440Z,38.92
2022-12-20T03:33:35.302Z,33.22
2022-12-20T03:36:04.616Z,31.55
2022-12-20T03:38:32.471Z,35.67
2022-12-20T03:41:00.336Z,36.95
2022-12-20T03:43:28.178Z,37.72
2022-12-20T03:45:56.149Z,35.88
2022-12-20T03:48:23.976Z,37.25
2022-12-20T03:50:51.828Z,37.83
2022-12-20T03:53:21.186Z,38.28
2022-12-20T03:55:49.005Z,35.13
2022-12-20T03:58:16.831Z,35.85
2022-12-20T04:00:44.656Z,35.28
2022-12-20T04:03:12.666Z,33.25
2022-12-20T04:05:40.631Z,32.65
2022-12-20T04:08:08.564Z,32.13
2022-12-20T04:10:58.270Z,34.60
2022-12-20T04:13:26.185Z,28.77
2022-12-20T04:15:59.785Z,29.95
2022-12-20T04:18:28.277Z,26.38
2022-12-20T04:20:56.279Z,32.42
2022-12-20T04:23:24.105Z,29.70
2022-12-20T04:25:53.296Z,31.08
2022-12-20T04:28:21.163Z,31.25
2022-12-20T04:30:49.012Z,28.52
2022-12-20T04:33:16.897Z,31.40
2022-12-20T04:35:44.749Z,28.20
2022-12-20T04:38:12.588Z,31.10
2022-12-20T04:40:40.529Z,26.70
2022-12-20T04:43:09.790Z,28.98
2022-12-20T04:45:37.809Z,28.38
2022-12-20T04:48:37.110Z,30.00
2022-12-20T04:50:54.642Z,27.75
2022-12-20T04:53:45.649Z,33.83
2022-12-20T04:56:13.811Z,33.35
2022-12-20T04:58:43.225Z,33.58
2022-12-20T05:01:11.725Z,33.35
2022-12-20T05:03:40.213Z,30.85
2022-12-20T05:06:09.097Z,29.63
2022-12-20T05:08:38.144Z,32.67
2022-12-20T05:11:06.769Z,35.08
2022-12-20T05:13:35.387Z,32.83
2022-12-20T05:16:05.203Z,30.58
2022-12-20T05:18:33.519Z,30.30
2022-12-20T05:21:20.526Z,31.95
2022-12-20T05:24:06.372Z,31.48
2022-12-20T05:26:38.639Z,29.05
2022-12-20T05:31:36.237Z,26.70
2022-12-20T05:34:04.080Z,29.00
2022-12-20T05:36:32.022Z,27.48
2022-12-20T05:39:03.991Z,27.85
2022-12-20T05:41:32.309Z,26.35
2022-12-20T05:44:00.255Z,24.80
2022-12-20T05:46:28.137Z,24.88
2022-12-20T05:48:57.431Z,23.67
2022-12-20T05:51:25.481Z,24.83
2022-12-20T05:53:53.275Z,21.63
2022-12-20T05:56:21.147Z,19.13
2022-12-20T05:58:48.972Z,22.48
2022-12-20T06:01:16.803Z,24.17
2022-12-20T06:03:45.734Z,24.33
2022-12-20T06:06:15.581Z,16.50
2022-12-20T06:08:43.567Z,16.95
2022-12-20T06:11:11.510Z,16.10
2022-12-20T06:13:39.422Z,17.73
2022-12-20T06:16:08.142Z,16.98
2022-12-20T06:18:36.000Z,14.00
2022-12-20T06:21:03.874Z,13.93
2022-12-20T06:23:34.131Z,14.75
2022-12-20T06:26:01.970Z,14.80
2022-12-20T06:28:29.802Z,12.63
2022-12-20T06:30:59.059Z,13.80
2022-12-20T06:33:27.097Z,12.13
2022-12-20T06:35:55.062Z,11.90
2022-12-20T06:38:22.911Z,11.55
2022-12-20T06:40:52.120Z,10.38
2022-12-20T06:43:20.048Z,9.52
2022-12-20T06:45:47.955Z,7.85
2022-12-20T06:48:15.809Z,9.65
2022-12-20T06:50:43.689Z,8.73
2022-12-20T06:53:11.547Z,10.35
2022-12-20T06:55:40.597Z,12.25
2022-12-20T06:58:09.745Z,12.48
2022-12-20T07:00:37.561Z,21.80
2022-12-20T07:03:05.642Z,25.08
2022-12-20T07:05:33.537Z,25.98
2022-12-20T07:08:02.785Z,26.38
2022-12-20T07:10:30.754Z,26.50
2022-12-20T07:12:58.646Z,28.63
2022-12-20T07:15:28.099Z,25.42
2022-12-20T07:17:55.990Z,26.30
2022-12-20T07:20:23.807Z,25.42
2022-12-20T07:22:51.622Z,27.25
2022-12-20T07:25:19.656Z,28.85
2022-12-20T07:27:49.693Z,27.63
2022-12-20T07:30:18.062Z,24.63
2022-12-20T07:32:47.299Z,27.20
2022-12-20T07:35:15.910Z,28.60
2022-12-20T07:37:43.781Z,25.60
2022-12-20T07:40:14.632Z,29.25
2022-12-20T07:42:48.521Z,25.33
2022-12-20T07:45:17.162Z,27.88
2022-12-20T07:47:45.020Z,27.55
2022-12-20T07:50:14.167Z,25.55
2022-12-20T07:52:45.554Z,25.05
2022-12-20T07:55:14.470Z,31.02
2022-12-20T07:57:46.825Z,30.15
2022-12-20T08:00:16.046Z,29.08
2022-12-20T08:02:48.666Z,30.02
2022-12-20T08:05:18.195Z,28.13
2022-12-20T08:07:48.529Z,23.95
2022-12-20T08:10:19.659Z,28.33
2022-12-20T08:12:48.687Z,30.83
2022-12-20T08:15:16.995Z,25.77
2022-12-20T08:17:44.866Z,27.40
2022-12-20T08:20:13.408Z,26.27
2022-12-20T08:22:42.610Z,24.88
2022-12-20T08:25:11.811Z,25.67
2022-12-20T08:27:39.693Z,25.63
2022-12-20T08:30:10.389Z,24.52
2022-12-20T08:32:38.273Z,27.55
2022-12-20T08:35:07.086Z,22.98
2022-12-20T08:37:35.197Z,25.77
2022-12-20T08:40:04.856Z,28.20
2022-12-20T08:42:32.672Z,33.25
2022-12-20T08:45:00.532Z,32.40
2022-12-20T08:47:30.394Z,28.83
2022-12-20T08:49:58.232Z,27.67
2022-12-20T08:52:26.054Z,25.77
2022-12-20T08:54:53.890Z,25.52
2022-12-20T08:57:23.235Z,26.58
2022-12-20T08:59:51.049Z,23.90
2022-12-20T09:02:19.820Z,22.67
2022-12-20T09:04:47.794Z,25.60
2022-12-20T09:07:15.582Z,22.45
2022-12-20T09:09:43.445Z,27.48
2022-12-20T09:12:11.543Z,25.50
2022-12-20T09:14:40.728Z,29.20
2022-12-20T09:17:08.587Z,27.55
2022-12-20T09:19:36.407Z,23.42
2022-12-20T09:22:04.306Z,29.95
2022-12-20T09:24:32.451Z,29.90
2022-12-20T09:27:00.212Z,24.13
2022-12-20T09:29:33.730Z,28.08
2022-12-20T09:32:05.099Z,25.73
2022-12-20T09:34:32.995Z,25.10
2022-12-20T09:37:01.075Z,24.08
2022-12-20T09:39:28.887Z,23.02
2022-12-20T09:41:56.819Z,23.25
2022-12-20T09:44:28.072Z,23.17
2022-12-20T09:47:03.528Z,24.38
2022-12-20T09:49:40.235Z,25.65
2022-12-20T09:52:37.339Z,26.20
2022-12-20T09:55:17.321Z,23.17
2022-12-20T09:57:59.215Z,22.63
2022-12-20T10:00:27.130Z,24.60
2022-12-20T10:03:09.985Z,25.17
2022-12-20T10:05:47.061Z,24.95
2022-12-20T10:08:22.906Z,22.17
2022-12-20T10:10:57.029Z,24.67
2022-12-20T10:13:38.418Z,22.85
2022-12-20T10:16:19.014Z,22.75
2022-12-20T10:18:58.296Z,21.85
2022-12-20T10:21:35.164Z,21.95
2022-12-20T10:24:04.858Z,19.77
2022-12-20T10:26:35.566Z,18.17
2022-12-20T10:29:03.447Z,20.27
2022-12-20T10:31:31.346Z,19.73
2022-12-20T10:33:59.138Z,20.88
2022-12-20T10:36:30.356Z,14.95
2022-12-20T10:38:59.848Z,13.65
2022-12-20T10:41:29.877Z,16.33
2022-12-20T10:44:01.125Z,16.55
2022-12-20T10:46:41.077Z,16.63
2022-12-20T10:49:30.963Z,14.82
2022-12-20T10:52:02.387Z,15.70
2022-12-20T10:54:35.997Z,15.45
2022-12-20T10:57:15.135Z,16.10
2022-12-20T10:59:46.743Z,14.07
2022-12-20T11:02:36.692Z,10.27
2022-12-20T11:05:23.271Z,12.90
2022-12-20T11:10:46.672Z,12.68
2022-12-20T11:13:26.682Z,11.43
2022-12-20T11:16:01.347Z,12.05
2022-12-20T11:18:44.072Z,12.30
2022-12-20T11:21:28.310Z,12.43
2022-12-20T11:24:09.553Z,15.75
2022-12-20T11:26:49.451Z,20.17
2022-12-20T11:29:32.706Z,16.17
2022-12-20T11:32:10.077Z,18.45
2022-12-20T11:34:45.110Z,18.13
2022-12-20T11:37:22.423Z,23.67
2022-12-20T11:40:07.299Z,19.60
2022-12-20T11:42:49.962Z,20.58
2022-12-20T11:45:24.724Z,17.17
2022-12-20T11:48:13.209Z,21.13
2022-12-20T11:50:57.229Z,20.23
2022-12-20T11:53:32.134Z,19.98
2022-12-20T11:56:06.156Z,22.23
2022-12-20T11:58:40.711Z,20.77
2022-12-20T12:01:13.871Z,18.77
2022-12-20T12:03:44.518Z,17.55
2022-12-20T12:06:18.780Z,22.10
2022-12-20T12:08:51.125Z,23.83
2022-12-20T12:14:18.771Z,21.98
2022-12-20T12:16:52.547Z,23.25
2022-12-20T12:19:20.433Z,19.23
2022-12-20T12:21:53.169Z,17.45
2022-12-20T12:24:27.175Z,19.17
2022-12-20T12:26:56.395Z,17.55
2022-12-20T12:29:24.171Z,21.58
2022-12-20T12:31:58.646Z,19.27
2022-12-20T12:34:40.682Z,20.73
2022-12-20T12:37:29.477Z,20.70
2022-12-20T12:40:22.507Z,17.50
2022-12-20T12:43:25.809Z,15.23
2022-12-20T12:45:59.409Z,14.40
2022-12-20T12:48:36.103Z,17.10
2022-12-20T12:51:05.217Z,15.65
2022-12-20T12:53:36.387Z,18.33
2022-12-20T12:56:46.981Z,17.70
2022-12-20T12:59:24.091Z,22.80
2022-12-20T13:01:55.920Z,28.05
2022-12-20T13:04:26.722Z,25.80
2022-12-20T13:07:03.390Z,28.30
2022-12-20T13:09:40.136Z,35.47
2022-12-20T13:12:49.626Z,33.65
2022-12-20T13:15:48.625Z,28.65
2022-12-20T13:18:26.335Z,31.55
2022-12-20T13:21:20.184Z,32.72
2022-12-20T13:23:47.932Z,31.65
2022-12-20T13:26:49.447Z,31.17
2022-12-20T13:29:25.708Z,31.42
2022-12-20T13:31:54.735Z,29.80
2022-12-20T13:34:54.406Z,33.65
2022-12-20T13:37:29.650Z,37.45
2022-12-20T13:39:58.206Z,32.95
2022-12-20T13:42:37.967Z,37.53
2022-12-20T13:45:12.427Z,35.90
2022-12-20T13:47:45.016Z,31.85
2022-12-20T13:50:30.702Z,35.05
2022-12-20T13:52:59.242Z,34.30
2022-12-20T13:55:33.904Z,34.22
2022-12-20T13:58:12.478Z,36.35
2022-12-20T14:00:40.571Z,44.10
2022-12-20T14:03:20.308Z,41.17
2022-12-20T14:05:50.160Z,43.58
2022-12-20T14:08:21.804Z,41.00
2022-12-20T14:10:50.111Z,42.85
2022-12-20T14:13:23.035Z,39.55
2022-12-20T14:15:51.351Z,41.25
2022-12-20T14:18:21.238Z,41.97
2022-12-20T14:20:52.791Z,38.63
2022-12-20T14:23:23.063Z,35.10
2022-12-20T14:25:55.301Z,41.50
2022-12-20T14:30:57.600Z,41.90
2022-12-20T14:33:32.094Z,37.08
2022-12-20T14:36:10.069Z,36.00
2022-12-20T14:38:38.185Z,38.20
2022-12-20T14:41:06.171Z,39.25
2022-12-20T14:43:37.667Z,37.70
2022-12-20T14:46:20.001Z,43.55
2022-12-20T14:51:21.735Z,44.42
2022-12-20T14:53:51.439Z,40.72
2022-12-20T14:56:27.866Z,44.70
2022-12-20T14:59:14.112Z,48.72
2022-12-20T15:04:24.300Z,46.50
2022-12-20T15:06:53.846Z,46.42
2022-12-20T15:09:22.199Z,46.13
2022-12-20T15:11:51.522Z,45.13
2022-12-20T15:14:29.465Z,45.47
2022-12-20T15:16:58.278Z,45.22
2022-12-20T15:19:26.027Z,48.85
2022-12-20T15:21:55.574Z,51.88
2022-12-20T15:24:27.392Z,48.63
2022-12-20T15:26:55.367Z,46.97
2022-12-20T15:29:25.043Z,47.90
2022-12-20T15:31:54.936Z,53.83
2022-12-20T15:34:30.989Z,53.40
2022-12-20T15:37:02.373Z,53.72
2022-12-20T15:39:30.953Z,50.77
2022-12-20T15:42:01.339Z,57.60
2022-12-20T15:44:31.580Z,56.33
2022-12-20T15:46:59.467Z,49.95
2022-12-20T15:49:31.283Z,53.70
2022-12-20T15:52:00.730Z,49.50
2022-12-20T15:54:32.653Z,54.70
2022-12-20T15:57:03.484Z,45.13
2022-12-20T16:02:23.086Z,56.88
2022-12-20T16:04:51.459Z,54.40
2022-12-20T16:07:20.825Z,56.20
2022-12-20T16:09:48.663Z,54.05
2022-12-20T16:12:19.954Z,59.42
2022-12-20T16:14:48.268Z,50.67
2022-12-20T16:17:16.657Z,52.40
2022-12-20T16:19:44.900Z,49.20
2022-12-20T16:22:16.762Z,53.47
2022-12-20T16:24:46.356Z,54.55
2022-12-20T16:27:14.226Z,58.08
2022-12-20T16:29:42.291Z,53.53
2022-12-20T16:32:15.239Z,53.22
2022-12-20T16:34:43.077Z,59.28
2022-12-20T16:37:11.682Z,53.85
2022-12-20T16:39:39.503Z,57.85
2022-12-20T16:42:13.286Z,63.33
2022-12-20T16:44:42.730Z,54.90
2022-12-20T16:47:10.776Z,59.67
2022-12-20T16:49:38.593Z,62.35
2022-12-20T16:52:06.854Z,53.15
2022-12-20T16:54:34.864Z,53.15
2022-12-20T16:57:02.610Z,62.88
2022-12-20T16:59:31.717Z,58.03
2022-12-20T17:01:59.637Z,58.67
2022-12-20T17:04:27.728Z,58.75
2022-12-20T17:06:55.508Z,61.13
2022-12-20T17:12:15.318Z,57.15
2022-12-20T17:14:44.832Z,55.53
2022-12-20T17:17:12.642Z,61.10
2022-12-20T17:19:40.474Z,61.30
2022-12-20T17:24:53.918Z,53.53
2022-12-20T17:27:21.687Z,56.33
2022-12-20T17:29:52.132Z,52.88
2022-12-20T17:32:21.713Z,55.85
2022-12-20T17:34:49.863Z,66.75
2022-12-20T17:37:18.217Z,60.40
2022-12-20T17:39:46.095Z,55.35
2022-12-20T17:42:14.650Z,58.17
2022-12-20T17:44:42.478Z,60.50
2022-12-20T17:47:12.237Z,74.65
2022-12-20T17:49:40.082Z,56.03
2022-12-20T17:52:12.683Z,67.80
2022-12-20T17:54:40.540Z,62.90
2022-12-20T17:57:14.572Z,64.90
2022-12-20T17:59:42.595Z,58.38
2022-12-20T18:02:21.500Z,59.53
2022-12-20T18:04:49.523Z,61.50
2022-12-20T18:07:17.496Z,52.25
2022-12-20T18:09:48.334Z,52.97
2022-12-20T18:12:16.216Z,57.80
2022-12-20T18:14:43.955Z,56.83
2022-12-20T18:17:11.873Z,53.10
2022-12-20T18:19:41.262Z,58.63
2022-12-20T18:22:09.049Z,51.63
2022-12-20T18:24:36.815Z,53.92
2022-12-20T18:27:04.645Z,52.13
2022-12-20T18:29:32.513Z,55.90
2022-12-20T18:32:00.478Z,53.35
2022-12-20T18:34:28.285Z,58.15
2022-12-20T18:36:57.381Z,53.60
2022-12-20T18:39:25.096Z,57.72
2022-12-20T18:41:52.861Z,60.38
2022-12-20T18:44:20.587Z,62.50
2022-12-20T18:46:48.421Z,52.80
2022-12-20T18:49:16.180Z,58.90
2022-12-20T18:51:43.934Z,56.15
2022-12-20T18:54:14.665Z,53.92
2022-12-20T18:56:42.435Z,52.60
2022-12-20T18:59:12.301Z,52.75
2022-12-20T19:01:42.101Z,58.50
2022-12-20T19:04:10.963Z,52.88
2022-12-20T19:06:39.422Z,51.13
2022-12-20T19:09:10.353Z,60.95
2022-12-20T19:11:39.900Z,53.95
2022-12-20T19:14:08.650Z,59.17
2022-12-20T19:16:36.585Z,57.67
2022-12-20T19:19:05.007Z,58.88
2022-12-20T19:21:35.181Z,60.45
2022-12-20T19:24:06.690Z,65.45
2022-12-20T19:26:36.366Z,58.67
2022-12-20T19:29:07.048Z,58.03
2022-12-20T19:31:37.547Z,54.78
2022-12-20T19:34:08.298Z,61.00
2022-12-20T19:36:39.069Z,57.58
2022-12-20T19:39:08.979Z,55.53
2022-12-20T19:41:36.838Z,59.25
2022-12-20T19:44:06.210Z,59.33
2022-12-20T19:46:34.395Z,65.72
2022-12-20T19:49:02.336Z,56.20
2022-12-20T19:51:30.333Z,58.58
2022-12-20T19:53:59.426Z,61.15
2022-12-20T19:56:29.371Z,58.45
2022-12-20T19:58:57.456Z,58.15
2022-12-20T20:01:28.083Z,58.13
2022-12-20T20:03:57.554Z,59.40
2022-12-20T20:06:26.254Z,56.88
2022-12-20T20:08:57.534Z,58.63
2022-12-20T20:11:25.733Z,60.67
2022-12-20T20:13:53.630Z,59.80
2022-12-20T20:16:23.196Z,64.82
2022-12-20T20:18:52.467Z,58.40
2022-12-20T20:21:23.216Z,66.90
2022-12-20T20:23:51.810Z,64.40
2022-12-20T20:26:21.652Z,64.80
2022-12-20T20:28:49.443Z,61.13
2022-12-20T20:31:19.448Z,61.85
2022-12-20T20:33:47.674Z,57.78
2022-12-20T20:36:18.375Z,61.30
2022-12-20T20:38:46.579Z,60.85
2022-12-20T20:41:15.013Z,61.47
2022-12-20T20:43:43.720Z,60.40
2022-12-20T20:46:13.670Z,57.67
2022-12-20T20:48:42.713Z,53.38
2022-12-20T20:51:10.979Z,55.80
2022-12-20T20:53:40.310Z,58.03
2022-12-20T20:56:09.382Z,62.72
2022-12-20T20:58:37.768Z,61.85
2022-12-20T21:01:08.762Z,59.35
2022-12-20T21:03:36.879Z,65.38
2022-12-20T21:06:38.717Z,58.58
2022-12-20T21:08:56.357Z,53.45
2022-12-20T21:11:24.553Z,61.00
2022-12-20T21:13:54.367Z,53.80
2022-12-20T21:16:22.821Z,56.75
2022-12-20T21:18:52.292Z,59.53
2022-12-20T21:21:20.765Z,59.83
2022-12-20T21:23:48.636Z,54.45
2022-12-20T21:26:19.110Z,53.90
2022-12-20T21:28:47.405Z,47.72
2022-12-20T21:31:17.442Z,53.10
2022-12-20T21:33:46.122Z,52.70
2022-12-20T21:36:15.441Z,52.75
2022-12-20T21:38:43.433Z,53.78
2022-12-20T21:41:13.492Z,56.40
2022-12-20T21:43:42.599Z,54.15
2022-12-20T21:46:11.744Z,52.25
2022-12-20T21:48:40.234Z,46.75
2022-12-20T21:51:10.016Z,52.00
2022-12-20T21:53:42.362Z,53.60
2022-12-20T21:58:37.780Z,48.70
2022-12-20T22:01:08.123Z,51.60
2022-12-20T22:03:36.746Z,51.05
2022-12-20T22:06:05.634Z,55.75
2022-12-20T22:08:34.554Z,61.53
2022-12-20T22:11:04.654Z,55.15
2022-12-20T22:13:39.011Z,54.42
2022-12-20T22:16:11.880Z,55.15
2022-12-20T22:18:41.575Z,53.30
2022-12-20T22:21:11.937Z,51.50
2022-12-20T22:23:40.076Z,55.63
2022-12-20T22:26:10.629Z,53.05
2022-12-20T22:28:39.098Z,53.33
2022-12-20T22:31:09.432Z,53.90
2022-12-20T22:33:39.391Z,57.40
2022-12-20T22:36:08.737Z,50.42
2022-12-20T22:38:36.660Z,58.78
2022-12-20T22:41:09.492Z,52.20
2022-12-20T22:43:38.474Z,51.88
2022-12-20T22:46:06.693Z,53.70
2022-12-20T22:48:34.910Z,50.15
2022-12-20T22:51:06.760Z,55.08
2022-12-20T22:53:34.889Z,52.30
2022-12-20T22:56:03.199Z,55.55
2022-12-20T22:58:31.839Z,59.05
2022-12-20T23:01:01.240Z,51.45
2022-12-20T23:03:30.839Z,47.83
2022-12-20T23:06:01.019Z,51.67
2022-12-20T23:08:32.181Z,53.20
2022-12-20T23:11:17.287Z,58.28
2022-12-20T23:14:03.213Z,56.92
2022-12-20T23:16:31.129Z,51.00
2022-12-20T23:19:00.259Z,52.47
2022-12-20T23:21:46.745Z,54.83
2022-12-20T23:24:16.812Z,52.08
2022-12-20T23:26:44.658Z,53.42
2022-12-20T23:29:14.215Z,53.00
2022-12-20T23:31:42.271Z,56.05
2022-12-20T23:34:10.115Z,53.13
2022-12-20T23:36:38.652Z,60.28
2022-12-20T23:39:06.822Z,49.97
2022-12-20T23:41:36.242Z,53.05
2022-12-20T23:44:05.765Z,45.92
2022-12-20T23:46:34.353Z,48.42
2022-12-20T23:49:02.131Z,46.55
2022-12-20T23:51:30.007Z,49.33
2022-12-20T23:53:57.800Z,43.85
2022-12-20T23:56:25.666Z,50.75
2022-12-20T23:58:55.845Z,48.25
